sensor_id;sensor_type;location;lat;lon;timestamp;temperature;humidity
44731;DHT22;30458;47.448;19.032;2023-04-06T00:01:05;5.80;70.30
44731;DHT22;30458;47.448;19.032;2023-04-06T00:11:05;5.70;71.00
44731;DHT22;30458;47.448;19.032;2023-04-06T00:21:06;5.70;71.50
44731;DHT22;30458;47.448;19.032;2023-04-06T00:31:07;5.30;72.90
44731;DHT22;30458;47.448;19.032;2023-04-06T00:41:11;5.10;72.90
44731;DHT22;30458;47.448;19.032;2023-04-06T00:51:17;4.80;73.40
44731;DHT22;30458;47.448;19.032;2023-04-06T01:01:20;4.70;74.20
44731;DHT22;30458;47.448;19.032;2023-04-06T01:11:23;4.50;75.30
44731;DHT22;30458;47.448;19.032;2023-04-06T01:21:28;4.40;75.40
44731;DHT22;30458;47.448;19.032;2023-04-06T01:31:52;4.30;76.00
44731;DHT22;30458;47.448;19.032;2023-04-06T01:41:54;3.80;77.70
44731;DHT22;30458;47.448;19.032;2023-04-06T01:51:56;3.90;77.30
44731;DHT22;30458;47.448;19.032;2023-04-06T02:01:57;3.60;77.50
44731;DHT22;30458;47.448;19.032;2023-04-06T02:12:03;3.40;78.20
44731;DHT22;30458;47.448;19.032;2023-04-06T02:22:09;3.20;78.80
44731;DHT22;30458;47.448;19.032;2023-04-06T02:32:12;3.40;78.60
44731;DHT22;30458;47.448;19.032;2023-04-06T02:42:16;3.30;78.70
44731;DHT22;30458;47.448;19.032;2023-04-06T02:52:19;3.40;78.70
44731;DHT22;30458;47.448;19.032;2023-04-06T03:02:21;3.30;78.00
44731;DHT22;30458;47.448;19.032;2023-04-06T03:12:24;3.10;78.70
44731;DHT22;30458;47.448;19.032;2023-04-06T03:22:46;3.20;78.60
44731;DHT22;30458;47.448;19.032;2023-04-06T03:32:50;3.10;79.20
44731;DHT22;30458;47.448;19.032;2023-04-06T03:42:56;2.90;80.10
44731;DHT22;30458;47.448;19.032;2023-04-06T03:53:01;2.90;80.40
44731;DHT22;30458;47.448;19.032;2023-04-06T04:03:08;3.10;80.30
44731;DHT22;30458;47.448;19.032;2023-04-06T04:13:09;2.70;81.30
44731;DHT22;30458;47.448;19.032;2023-04-06T04:23:10;2.80;81.20
44731;DHT22;30458;47.448;19.032;2023-04-06T04:33:11;2.80;81.30
44731;DHT22;30458;47.448;19.032;2023-04-06T04:43:16;3.00;80.30
44731;DHT22;30458;47.448;19.032;2023-04-06T04:53:17;3.30;79.60
44731;DHT22;30458;47.448;19.032;2023-04-06T05:03:24;3.40;78.10
44731;DHT22;30458;47.448;19.032;2023-04-06T05:13:33;3.80;77.60
44731;DHT22;30458;47.448;19.032;2023-04-06T05:23:39;4.20;76.40
44731;DHT22;30458;47.448;19.032;2023-04-06T05:33:40;4.70;75.50
44731;DHT22;30458;47.448;19.032;2023-04-06T05:43:48;5.40;74.60
44731;DHT22;30458;47.448;19.032;2023-04-06T05:53:48;5.50;74.10
44731;DHT22;30458;47.448;19.032;2023-04-06T06:03:49;6.40;72.00
44731;DHT22;30458;47.448;19.032;2023-04-06T06:13:50;7.60;69.80
44731;DHT22;30458;47.448;19.032;2023-04-06T06:23:54;7.80;69.10
44731;DHT22;30458;47.448;19.032;2023-04-06T06:34:01;8.40;67.80
44731;DHT22;30458;47.448;19.032;2023-04-06T06:44:06;8.80;67.50
44731;DHT22;30458;47.448;19.032;2023-04-06T06:54:09;9.70;65.50
44731;DHT22;30458;47.448;19.032;2023-04-06T07:04:12;10.30;63.60
44731;DHT22;30458;47.448;19.032;2023-04-06T07:14:14;10.50;59.30
44731;DHT22;30458;47.448;19.032;2023-04-06T07:24:17;10.60;59.00
44731;DHT22;30458;47.448;19.032;2023-04-06T07:34:22;9.60;60.70
44731;DHT22;30458;47.448;19.032;2023-04-06T07:44:26;9.20;62.30
44731;DHT22;30458;47.448;19.032;2023-04-06T07:54:27;9.90;60.90
44731;DHT22;30458;47.448;19.032;2023-04-06T08:04:28;9.70;60.30
44731;DHT22;30458;47.448;19.032;2023-04-06T08:14:29;9.20;62.40
44731;DHT22;30458;47.448;19.032;2023-04-06T08:24:30;8.40;63.10
44731;DHT22;30458;47.448;19.032;2023-04-06T08:34:33;8.30;63.70
44731;DHT22;30458;47.448;19.032;2023-04-06T08:44:34;8.60;62.70
44731;DHT22;30458;47.448;19.032;2023-04-06T08:54:34;8.40;63.70
44731;DHT22;30458;47.448;19.032;2023-04-06T09:04:41;8.80;62.10
44731;DHT22;30458;47.448;19.032;2023-04-06T09:14:42;8.80;64.10
44731;DHT22;30458;47.448;19.032;2023-04-06T09:24:52;9.10;62.10
44731;DHT22;30458;47.448;19.032;2023-04-06T09:35:05;8.80;61.10
44731;DHT22;30458;47.448;19.032;2023-04-06T09:45:14;8.70;61.60
44731;DHT22;30458;47.448;19.032;2023-04-06T09:55:25;8.60;61.90
44731;DHT22;30458;47.448;19.032;2023-04-06T10:15:33;9.20;61.90
44731;DHT22;30458;47.448;19.032;2023-04-06T10:25:34;9.60;62.00
44731;DHT22;30458;47.448;19.032;2023-04-06T10:35:38;9.70;61.50
44731;DHT22;30458;47.448;19.032;2023-04-06T10:45:41;9.70;60.80
44731;DHT22;30458;47.448;19.032;2023-04-06T10:55:46;9.70;60.30
44731;DHT22;30458;47.448;19.032;2023-04-06T11:05:48;9.60;60.50
44731;DHT22;30458;47.448;19.032;2023-04-06T11:15:51;9.70;60.70
44731;DHT22;30458;47.448;19.032;2023-04-06T11:25:53;9.70;59.40
44731;DHT22;30458;47.448;19.032;2023-04-06T11:35:57;9.80;59.70
44731;DHT22;30458;47.448;19.032;2023-04-06T11:46:03;10.00;58.40
44731;DHT22;30458;47.448;19.032;2023-04-06T11:56:06;10.20;57.90
44731;DHT22;30458;47.448;19.032;2023-04-06T12:06:07;10.10;58.50
44731;DHT22;30458;47.448;19.032;2023-04-06T12:16:08;10.20;58.60
44731;DHT22;30458;47.448;19.032;2023-04-06T12:26:09;10.20;60.20
44731;DHT22;30458;47.448;19.032;2023-04-06T12:36:14;9.70;60.50
44731;DHT22;30458;47.448;19.032;2023-04-06T12:46:16;9.90;59.80
44731;DHT22;30458;47.448;19.032;2023-04-06T12:56:18;10.10;61.40
44731;DHT22;30458;47.448;19.032;2023-04-06T13:06:18;10.00;61.10
44731;DHT22;30458;47.448;19.032;2023-04-06T13:16:19;9.70;61.80
44731;DHT22;30458;47.448;19.032;2023-04-06T13:26:21;9.90;61.60
44731;DHT22;30458;47.448;19.032;2023-04-06T13:36:22;10.20;60.90
44731;DHT22;30458;47.448;19.032;2023-04-06T13:46:26;10.00;61.30
44731;DHT22;30458;47.448;19.032;2023-04-06T13:56:28;9.70;63.90
44731;DHT22;30458;47.448;19.032;2023-04-06T14:06:31;9.70;64.90
44731;DHT22;30458;47.448;19.032;2023-04-06T14:16:34;9.30;66.10
44731;DHT22;30458;47.448;19.032;2023-04-06T14:26:35;9.60;65.10
44731;DHT22;30458;47.448;19.032;2023-04-06T14:36:39;9.80;65.00
44731;DHT22;30458;47.448;19.032;2023-04-06T14:46:43;9.90;64.40
44731;DHT22;30458;47.448;19.032;2023-04-06T14:56:43;9.30;67.10
44731;DHT22;30458;47.448;19.032;2023-04-06T15:06:44;9.00;68.40
44731;DHT22;30458;47.448;19.032;2023-04-06T15:16:47;8.90;72.20
44731;DHT22;30458;47.448;19.032;2023-04-06T15:26:50;8.70;73.80
44731;DHT22;30458;47.448;19.032;2023-04-06T15:36:56;8.40;77.20
44731;DHT22;30458;47.448;19.032;2023-04-06T15:47:01;8.40;76.70
44731;DHT22;30458;47.448;19.032;2023-04-06T15:57:04;8.30;78.50
44731;DHT22;30458;47.448;19.032;2023-04-06T16:07:08;8.00;80.20
44731;DHT22;30458;47.448;19.032;2023-04-06T16:17:09;8.10;80.70
44731;DHT22;30458;47.448;19.032;2023-04-06T16:27:12;8.40;80.50
44731;DHT22;30458;47.448;19.032;2023-04-06T16:37:18;8.10;78.80
44731;DHT22;30458;47.448;19.032;2023-04-06T16:47:21;7.90;81.60
44731;DHT22;30458;47.448;19.032;2023-04-06T16:57:23;7.50;85.50
44731;DHT22;30458;47.448;19.032;2023-04-06T17:07:31;7.30;88.50
44731;DHT22;30458;47.448;19.032;2023-04-06T17:17:32;7.10;90.60
44731;DHT22;30458;47.448;19.032;2023-04-06T17:27:33;7.10;92.40
44731;DHT22;30458;47.448;19.032;2023-04-06T17:37:36;6.90;95.30
44731;DHT22;30458;47.448;19.032;2023-04-06T17:47:40;7.00;96.80
44731;DHT22;30458;47.448;19.032;2023-04-06T17:57:41;7.00;97.30
44731;DHT22;30458;47.448;19.032;2023-04-06T18:07:47;7.00;98.90
44731;DHT22;30458;47.448;19.032;2023-04-06T18:17:49;6.90;99.90
44731;DHT22;30458;47.448;19.032;2023-04-06T18:27:50;6.50;99.90
44731;DHT22;30458;47.448;19.032;2023-04-06T18:37:51;6.40;99.90
44731;DHT22;30458;47.448;19.032;2023-04-06T18:47:54;6.40;99.90
44731;DHT22;30458;47.448;19.032;2023-04-06T18:57:58;6.30;99.90
44731;DHT22;30458;47.448;19.032;2023-04-06T19:07:59;6.20;99.90
44731;DHT22;30458;47.448;19.032;2023-04-06T19:18:03;6.30;99.90
44731;DHT22;30458;47.448;19.032;2023-04-06T19:28:04;6.30;99.90
44731;DHT22;30458;47.448;19.032;2023-04-06T19:38:05;6.20;99.90
44731;DHT22;30458;47.448;19.032;2023-04-06T19:48:05;6.10;99.90
44731;DHT22;30458;47.448;19.032;2023-04-06T19:58:06;6.30;99.90
44731;DHT22;30458;47.448;19.032;2023-04-06T20:08:07;6.30;99.90
44731;DHT22;30458;47.448;19.032;2023-04-06T20:18:10;6.40;99.90
44731;DHT22;30458;47.448;19.032;2023-04-06T20:28:11;6.50;99.90
44731;DHT22;30458;47.448;19.032;2023-04-06T20:38:12;6.70;99.90
44731;DHT22;30458;47.448;19.032;2023-04-06T20:48:13;6.70;99.90
44731;DHT22;30458;47.448;19.032;2023-04-06T20:58:18;6.70;99.90
44731;DHT22;30458;47.448;19.032;2023-04-06T21:08:22;6.60;99.90
44731;DHT22;30458;47.448;19.032;2023-04-06T21:18:25;6.60;99.90
44731;DHT22;30458;47.448;19.032;2023-04-06T21:28:28;6.60;99.90
44731;DHT22;30458;47.448;19.032;2023-04-06T21:38:29;6.60;99.90
44731;DHT22;30458;47.448;19.032;2023-04-06T21:48:34;6.60;99.90
44731;DHT22;30458;47.448;19.032;2023-04-06T21:58:35;6.60;99.90
44731;DHT22;30458;47.448;19.032;2023-04-06T22:08:38;6.70;99.90
44731;DHT22;30458;47.448;19.032;2023-04-06T22:18:39;6.60;99.90
44731;DHT22;30458;47.448;19.032;2023-04-06T22:28:40;6.80;99.90
44731;DHT22;30458;47.448;19.032;2023-04-06T22:38:44;6.80;99.90
44731;DHT22;30458;47.448;19.032;2023-04-06T22:48:44;7.00;99.90
44731;DHT22;30458;47.448;19.032;2023-04-06T22:58:45;7.20;99.90
44731;DHT22;30458;47.448;19.032;2023-04-06T23:08:46;7.30;99.90
44731;DHT22;30458;47.448;19.032;2023-04-06T23:18:49;7.30;99.90
44731;DHT22;30458;47.448;19.032;2023-04-06T23:28:55;7.30;99.90
44731;DHT22;30458;47.448;19.032;2023-04-06T23:38:55;7.40;99.50
44731;DHT22;30458;47.448;19.032;2023-04-06T23:48:57;7.40;99.40
44731;DHT22;30458;47.448;19.032;2023-04-06T23:58:58;7.30;98.80
